If you wish to contribute or participate in the discussions about articles you are invited to join SKYbrary as a registered user

 Actions

Épinal-Mirecourt Airport

From SKYbrary Wiki

LFSG
Airport
ICAO: LFSG – IATA: EPL
Summary
Name Épinal-Mirecourt Airport
Region Europe
Territory France FR.gif
Location , Lorraine
Serving Epinal
Elevation 330.403 m
1,084 ft
1,084 ft330.403 m
Type medium airport
Coordinates 48° 19' 29.86" N, 6° 4' 11.94" E
Runways
Designator Length Width Surface ROPS
9/27 2700 m8,858.268 ft
45 m147.638 ft
CON no/no


METAR
Observation LFSG 121030Z AUTO 22012KT 9999 OVC013 04/01 Q1006
Station Epinal-Mirecourt
Date/Time 12 December 2019 10:30:00
Wind direction 220°
Wind speed 12 kts
Lowest cloud amount overcast
Temperature 4°C
Dew point 1°C
Humidity 80%
QNH 1006 hPa
Weather condition n/a